Time,TemperatureF,DewpointF,PressureIn,WindDirection,WindDirectionDegrees,WindSpeedMPH,WindSpeedGustMPH,Humidity,HourlyPrecipIn,Conditions,Clouds,dailyrainin,SoftwareType,DateUTC
2013-10-22 00:02:00,44.6,44.6,30.11,West,281,0.0,0.0,100,0.00,,,0.00,VWS V13.01,2013-10-22 05:02:00,
2013-10-22 00:07:00,44.5,44.5,30.11,West,281,0.0,0.0,100,0.00,,,0.00,VWS V13.01,2013-10-22 05:07:00,
2013-10-22 00:12:00,44.3,44.3,30.11,West,281,0.0,0.0,100,0.00,,,0.00,VWS V13.01,2013-10-22 05:12:00,
2013-10-22 00:17:00,44.3,44.3,30.11,West,281,0.0,0.0,100,0.00,,,0.00,VWS V13.01,2013-10-22 05:17:00,
2013-10-22 00:22:00,43.9,43.9,30.11,West,281,0.0,0.0,100,0.00,,,0.00,VWS V13.01,2013-10-22 05:22:00,
2013-10-22 00:27:00,43.6,43.6,30.11,West,281,0.0,0.0,100,0.00,,,0.00,VWS V13.01,2013-10-22 05:27:00,
2013-10-22 00:32:00,43.2,43.2,30.11,West,281,0.0,0.0,100,0.00,,,0.00,VWS V13.01,2013-10-22 05:32:00,
2013-10-22 00:37:00,43.0,43.0,30.11,West,281,0.0,0.0,100,0.00,,,0.00,VWS V13.01,2013-10-22 05:37:00,
2013-10-22 00:42:00,42.8,42.8,30.11,West,281,0.0,0.0,100,0.00,,,0.00,VWS V13.01,2013-10-22 05:42:00,
2013-10-22 00:47:00,42.7,42.7,30.11,West,281,0.0,0.0,100,0.00,,,0.00,VWS V13.01,2013-10-22 05:47:00,
2013-10-22 00:52:00,42.5,42.5,30.11,West,281,0.0,0.0,100,0.00,,,0.00,VWS V13.01,2013-10-22 05:52:00,
2013-10-22 00:57:00,42.1,42.1,30.11,West,281,0.0,0.0,100,0.00,,,0.00,VWS V13.01,2013-10-22 05:57:00,
2013-10-22 01:09:00,41.4,41.4,30.11,WNW,284,0.0,0.0,100,0.00,,,0.00,VWS V13.01,2013-10-22 06:09:00,
2013-10-22 01:14:00,41.2,41.2,30.11,WNW,284,0.0,0.0,100,0.00,,,0.00,VWS V13.01,2013-10-22 06:14:00,
2013-10-22 01:19:00,41.0,41.0,30.11,WNW,284,0.0,0.0,100,0.00,,,0.00,VWS V13.01,2013-10-22 06:19:00,
2013-10-22 01:24:00,41.0,41.0,30.11,SW,221,0.0,0.0,100,0.00,,,0.00,VWS V13.01,2013-10-22 06:24:00,
2013-10-22 01:29:00,41.0,41.0,30.11,SW,221,0.0,0.0,100,0.00,,,0.00,VWS V13.01,2013-10-22 06:29:00,
2013-10-22 01:34:00,41.0,41.0,30.11,SW,221,0.0,0.0,100,0.00,,,0.00,VWS V13.01,2013-10-22 06:34:00,
2013-10-22 01:39:00,41.0,41.0,30.11,West,264,0.0,0.0,100,0.00,,,0.00,VWS V13.01,2013-10-22 06:39:00,
2013-10-22 01:44:00,41.0,41.0,30.11,West,264,0.0,0.0,100,0.00,,,0.00,VWS V13.01,2013-10-22 06:44:00,
2013-10-22 01:49:00,40.9,40.9,30.11,WNW,283,0.0,0.0,100,0.00,,,0.00,VWS V13.01,2013-10-22 06:49:00,
2013-10-22 01:54:00,40.7,40.7,30.11,WNW,283,0.0,0.0,100,0.00,,,0.00,VWS V13.01,2013-10-22 06:54:00,
2013-10-22 01:59:00,40.7,40.7,30.14,WNW,283,0.0,0.0,100,0.00,,,0.00,VWS V13.01,2013-10-22 06:59:00,
2013-10-22 02:04:00,40.5,40.5,30.14,WNW,283,0.0,0.0,100,0.00,,,0.00,VWS V13.01,2013-10-22 07:04:00,
2013-10-22 02:09:00,40.1,40.1,30.14,WNW,283,0.0,0.0,100,0.00,,,0.00,VWS V13.01,2013-10-22 07:09:00,
2013-10-22 02:14:00,40.0,40.0,30.14,WNW,283,0.0,0.0,100,0.00,,,0.00,VWS V13.01,2013-10-22 07:14:00,
2013-10-22 02:19:00,40.0,40.0,30.14,WNW,295,0.0,0.0,100,0.00,,,0.00,VWS V13.01,2013-10-22 07:19:00,
2013-10-22 02:24:00,39.8,39.8,30.14,WNW,295,0.0,0.0,100,0.04,,,0.04,VWS V13.01,2013-10-22 07:24:00,
2013-10-22 02:29:00,39.8,39.8,30.14,WNW,295,0.0,0.0,100,0.04,,,0.04,VWS V13.01,2013-10-22 07:29:00,
2013-10-22 02:34:00,39.8,39.8,30.14,WNW,295,0.0,0.0,100,0.04,,,0.04,VWS V13.01,2013-10-22 07:34:00,
2013-10-22 02:39:00,39.4,39.4,30.14,NW,305,0.0,0.0,100,0.04,,,0.04,VWS V13.01,2013-10-22 07:39:00,
2013-10-22 02:44:00,39.4,39.4,30.14,NW,305,0.0,0.0,100,0.04,,,0.04,VWS V13.01,2013-10-22 07:44:00,
2013-10-22 02:49:00,39.2,39.2,30.14,NW,305,0.0,0.0,100,0.04,,,0.04,VWS V13.01,2013-10-22 07:49:00,
2013-10-22 02:54:00,39.2,39.2,30.14,NW,305,0.0,0.0,100,0.04,,,0.04,VWS V13.01,2013-10-22 07:54:00,
2013-10-22 02:59:00,39.1,39.1,30.11,NW,305,0.0,0.0,100,0.04,,,0.04,VWS V13.01,2013-10-22 07:59:00,
2013-10-22 03:04:00,38.9,38.9,30.11,NW,305,0.0,0.0,100,0.04,,,0.04,VWS V13.01,2013-10-22 08:04:00,
2013-10-22 03:09:00,38.9,38.9,30.11,NW,305,0.0,0.0,100,0.04,,,0.04,VWS V13.01,2013-10-22 08:09:00,
2013-10-22 03:14:00,38.7,38.7,30.11,NW,322,0.0,0.0,100,0.04,,,0.04,VWS V13.01,2013-10-22 08:14:00,
2013-10-22 03:19:00,38.7,38.7,30.11,NW,322,0.0,0.0,100,0.04,,,0.04,VWS V13.01,2013-10-22 08:19:00,
2013-10-22 03:24:00,38.5,38.5,30.11,NW,322,0.0,0.0,100,0.00,,,0.04,VWS V13.01,2013-10-22 08:24:00,
2013-10-22 03:28:00,38.3,38.3,30.11,NW,322,0.0,0.0,100,0.00,,,0.04,VWS V13.01,2013-10-22 08:28:00,
2013-10-22 03:33:00,38.3,38.3,30.11,NW,322,0.0,0.0,100,0.00,,,0.04,VWS V13.01,2013-10-22 08:33:00,
2013-10-22 03:38:00,38.3,38.3,30.11,NW,322,0.0,0.0,100,0.00,,,0.04,VWS V13.01,2013-10-22 08:38:00,
2013-10-22 03:43:00,38.5,38.5,30.11,NW,322,0.0,0.0,100,0.00,,,0.04,VWS V13.01,2013-10-22 08:43:00,
2013-10-22 03:48:00,38.7,38.7,30.11,NW,322,0.0,0.0,100,0.00,,,0.04,VWS V13.01,2013-10-22 08:48:00,
2013-10-22 03:53:00,38.7,38.7,30.11,NNW,327,0.0,0.0,100,0.00,,,0.04,VWS V13.01,2013-10-22 08:53:00,
2013-10-22 03:58:00,39.1,39.1,30.11,NNW,337,2.2,2.2,100,0.00,,,0.04,VWS V13.01,2013-10-22 08:58:00,
2013-10-22 04:03:00,39.2,39.2,30.11,NNW,337,0.0,0.0,100,0.00,,,0.04,VWS V13.01,2013-10-22 09:03:00,
2013-10-22 04:08:00,39.4,39.4,30.11,NNW,337,0.0,0.0,100,0.00,,,0.04,VWS V13.01,2013-10-22 09:08:00,
2013-10-22 04:13:00,39.6,39.6,30.11,NNW,337,0.0,0.0,100,0.00,,,0.04,VWS V13.01,2013-10-22 09:13:00,
2013-10-22 04:18:00,39.8,39.8,30.11,NNW,337,0.0,0.0,100,0.00,,,0.04,VWS V13.01,2013-10-22 09:18:00,
2013-10-22 04:23:00,40.0,40.0,30.11,NNW,337,0.0,0.0,100,0.00,,,0.04,VWS V13.01,2013-10-22 09:23:00,
2013-10-22 04:28:00,40.1,40.1,30.11,NNW,337,0.0,0.0,100,0.00,,,0.04,VWS V13.01,2013-10-22 09:28:00,
2013-10-22 04:33:00,40.1,40.1,30.11,North,351,0.0,0.0,100,0.00,,,0.04,VWS V13.01,2013-10-22 09:33:00,
2013-10-22 04:38:00,40.5,40.5,30.11,North,351,0.0,0.0,100,0.00,,,0.04,VWS V13.01,2013-10-22 09:38:00,
2013-10-22 04:43:00,40.5,40.5,30.11,North,351,0.0,0.0,100,0.00,,,0.04,VWS V13.01,2013-10-22 09:43:00,
2013-10-22 04:48:00,40.5,40.5,30.11,North,351,0.0,0.0,100,0.00,,,0.04,VWS V13.01,2013-10-22 09:48:00,
2013-10-22 04:53:00,40.3,40.3,30.11,North,351,0.0,0.0,100,0.00,,,0.04,VWS V13.01,2013-10-22 09:53:00,
2013-10-22 04:58:00,40.0,40.0,30.11,North,350,0.0,0.0,100,0.00,,,0.04,VWS V13.01,2013-10-22 09:58:00,
2013-10-22 05:03:00,40.0,40.0,30.11,North,351,0.0,0.0,100,0.00,,,0.04,VWS V13.01,2013-10-22 10:03:00,
2013-10-22 05:08:00,40.0,40.0,30.11,North,352,0.0,0.0,100,0.00,,,0.04,VWS V13.01,2013-10-22 10:08:00,
2013-10-22 05:13:00,39.8,39.8,30.11,North,351,0.0,0.0,100,0.00,,,0.04,VWS V13.01,2013-10-22 10:13:00,
2013-10-22 05:18:00,39.8,39.8,30.11,North,351,0.0,0.0,100,0.00,,,0.04,VWS V13.01,2013-10-22 10:18:00,
2013-10-22 05:23:00,39.8,39.8,30.11,North,352,0.0,0.0,100,0.00,,,0.04,VWS V13.01,2013-10-22 10:23:00,
2013-10-22 05:28:00,39.8,39.8,30.11,North,351,0.0,0.0,100,0.00,,,0.04,VWS V13.01,2013-10-22 10:28:00,
2013-10-22 05:33:00,39.6,39.6,30.11,North,352,0.0,0.0,100,0.00,,,0.04,VWS V13.01,2013-10-22 10:33:00,
2013-10-22 05:38:00,39.6,39.6,30.11,North,352,0.0,0.0,100,0.00,,,0.04,VWS V13.01,2013-10-22 10:38:00,
2013-10-22 05:43:00,39.4,39.4,30.14,North,352,0.0,0.0,100,0.00,,,0.04,VWS V13.01,2013-10-22 10:43:00,
2013-10-22 05:48:00,39.4,39.4,30.14,North,352,0.0,0.0,100,0.00,,,0.04,VWS V13.01,2013-10-22 10:48:00,
2013-10-22 05:53:00,39.4,39.4,30.14,North,352,0.0,0.0,100,0.00,,,0.04,VWS V13.01,2013-10-22 10:53:00,
2013-10-22 05:58:00,39.2,39.2,30.14,North,352,0.0,0.0,100,0.00,,,0.04,VWS V13.01,2013-10-22 10:58:00,
2013-10-22 06:03:00,39.2,39.2,30.14,North,352,0.0,0.0,100,0.00,,,0.04,VWS V13.01,2013-10-22 11:03:00,
2013-10-22 06:08:00,39.2,39.2,30.14,North,352,0.0,0.0,100,0.00,,,0.04,VWS V13.01,2013-10-22 11:08:00,
2013-10-22 06:13:00,39.2,39.2,30.14,North,352,0.0,0.0,100,0.00,,,0.04,VWS V13.01,2013-10-22 11:13:00,
2013-10-22 06:18:00,39.1,39.1,30.14,North,352,0.0,0.0,100,0.00,,,0.04,VWS V13.01,2013-10-22 11:18:00,
2013-10-22 06:23:00,39.1,39.1,30.14,North,352,0.0,0.0,100,0.00,,,0.04,VWS V13.01,2013-10-22 11:23:00,
2013-10-22 06:28:00,39.1,39.1,30.14,NW,314,0.0,0.0,100,0.00,,,0.04,VWS V13.01,2013-10-22 11:28:00,
2013-10-22 06:33:00,39.1,39.1,30.14,NW,314,0.0,0.0,100,0.00,,,0.04,VWS V13.01,2013-10-22 11:33:00,
2013-10-22 06:38:00,38.9,38.9,30.14,NW,314,0.0,0.0,100,0.00,,,0.04,VWS V13.01,2013-10-22 11:38:00,
2013-10-22 06:43:00,38.9,38.9,30.14,NW,314,0.0,0.0,100,0.00,,,0.04,VWS V13.01,2013-10-22 11:43:00,
2013-10-22 06:48:00,38.7,38.7,30.14,WNW,296,0.0,0.0,100,0.00,,,0.04,VWS V13.01,2013-10-22 11:48:00,
2013-10-22 06:53:00,38.5,38.5,30.14,West,261,0.0,0.0,100,0.00,,,0.04,VWS V13.01,2013-10-22 11:53:00,
2013-10-22 06:58:00,38.5,38.5,30.14,West,261,0.0,0.0,100,0.00,,,0.04,VWS V13.01,2013-10-22 11:58:00,
2013-10-22 07:04:00,38.2,38.2,30.14,West,261,0.0,0.0,100,0.00,,,0.04,VWS V13.01,2013-10-22 12:04:00,
2013-10-22 07:09:00,38.2,38.2,30.14,WSW,258,0.0,0.0,100,0.00,,,0.04,VWS V13.01,2013-10-22 12:09:00,
2013-10-22 07:14:00,38.2,38.2,30.14,WSW,258,0.0,0.0,100,0.00,,,0.04,VWS V13.01,2013-10-22 12:14:00,
2013-10-22 07:19:00,38.0,38.0,30.14,WSW,258,0.0,0.0,100,0.00,,,0.04,VWS V13.01,2013-10-22 12:19:00,
2013-10-22 07:25:00,38.0,38.0,30.14,West,259,0.0,0.0,100,0.00,,,0.04,VWS V13.01,2013-10-22 12:25:00,
2013-10-22 07:30:00,38.0,38.0,30.14,West,259,0.0,0.0,100,0.00,,,0.04,VWS V13.01,2013-10-22 12:30:00,
2013-10-22 07:35:00,38.0,38.0,30.14,West,259,0.0,0.0,100,0.00,,,0.04,VWS V13.01,2013-10-22 12:35:00,
2013-10-22 07:40:00,38.0,38.0,30.14,West,259,0.0,0.0,100,0.00,,,0.04,VWS V13.01,2013-10-22 12:40:00,
2013-10-22 07:45:00,38.0,38.0,30.14,West,259,0.0,0.0,100,0.00,,,0.04,VWS V13.01,2013-10-22 12:45:00,
2013-10-22 07:50:00,38.2,38.2,30.14,West,259,0.0,0.0,100,0.00,,,0.04,VWS V13.01,2013-10-22 12:50:00,
2013-10-22 07:55:00,38.3,38.3,30.14,WSW,246,0.0,0.0,100,0.00,,,0.04,VWS V13.01,2013-10-22 12:55:00,
2013-10-22 08:00:00,38.3,38.3,30.14,WSW,246,0.0,0.0,100,0.00,,,0.04,VWS V13.01,2013-10-22 13:00:00,
2013-10-22 08:05:00,38.3,38.3,30.14,WSW,246,0.0,0.0,100,0.00,,,0.04,VWS V13.01,2013-10-22 13:05:00,
2013-10-22 08:10:00,38.5,38.5,30.14,WSW,246,0.0,0.0,100,0.00,,,0.04,VWS V13.01,2013-10-22 13:10:00,
2013-10-22 08:15:00,38.7,38.7,30.14,WSW,246,0.0,0.0,100,0.00,,,0.04,VWS V13.01,2013-10-22 13:15:00,
2013-10-22 08:20:00,38.9,38.9,30.14,WSW,246,0.0,0.0,100,0.00,,,0.04,VWS V13.01,2013-10-22 13:20:00,
2013-10-22 08:25:00,39.1,39.1,30.14,WSW,246,0.0,0.0,100,0.00,,,0.04,VWS V13.01,2013-10-22 13:25:00,
2013-10-22 08:30:00,39.4,39.4,30.14,WSW,242,0.0,0.0,100,0.00,,,0.04,VWS V13.01,2013-10-22 13:30:00,
2013-10-22 08:35:00,39.4,39.4,30.14,WSW,242,0.0,0.0,100,0.00,,,0.04,VWS V13.01,2013-10-22 13:35:00,
2013-10-22 08:40:00,39.6,39.6,30.14,WSW,242,0.0,0.0,100,0.00,,,0.04,VWS V13.01,2013-10-22 13:40:00,
2013-10-22 08:45:00,39.8,39.8,30.14,WSW,242,0.0,0.0,100,0.00,,,0.04,VWS V13.01,2013-10-22 13:45:00,
2013-10-22 08:50:00,40.1,40.1,30.14,WSW,242,0.0,0.0,100,0.00,,,0.04,VWS V13.01,2013-10-22 13:50:00,
2013-10-22 08:55:00,40.1,40.1,30.14,WSW,242,0.0,0.0,100,0.00,,,0.04,VWS V13.01,2013-10-22 13:55:00,
2013-10-22 09:00:00,40.5,40.5,30.14,WSW,242,0.0,0.0,100,0.00,,,0.04,VWS V13.01,2013-10-22 14:00:00,
2013-10-22 09:05:00,40.7,40.7,30.14,WSW,242,0.0,0.0,100,0.00,,,0.04,VWS V13.01,2013-10-22 14:05:00,
2013-10-22 09:10:00,40.9,40.9,30.14,WSW,258,0.0,0.0,100,0.00,,,0.04,VWS V13.01,2013-10-22 14:10:00,
2013-10-22 09:15:00,41.0,41.0,30.14,WSW,253,0.0,0.0,100,0.00,,,0.04,VWS V13.01,2013-10-22 14:15:00,
2013-10-22 09:20:00,41.0,41.0,30.14,WSW,251,0.0,0.0,100,0.00,,,0.04,VWS V13.01,2013-10-22 14:20:00,
2013-10-22 09:25:00,41.4,41.4,30.14,WSW,243,0.0,0.0,100,0.00,,,0.04,VWS V13.01,2013-10-22 14:25:00,
2013-10-22 09:30:00,41.8,41.8,30.14,SSE,151,0.0,0.0,100,0.00,,,0.04,VWS V13.01,2013-10-22 14:30:00,
2013-10-22 09:35:00,41.8,41.8,30.14,SSE,161,0.0,0.0,100,0.00,,,0.04,VWS V13.01,2013-10-22 14:35:00,
2013-10-22 09:40:00,41.8,41.8,30.14,South,185,0.0,0.0,100,0.00,,,0.04,VWS V13.01,2013-10-22 14:40:00,
2013-10-22 09:45:00,41.9,41.9,30.17,South,183,0.0,0.0,100,0.00,,,0.04,VWS V13.01,2013-10-22 14:45:00,
2013-10-22 09:50:00,42.1,42.1,30.17,SE,125,0.0,0.0,100,0.00,,,0.04,VWS V13.01,2013-10-22 14:50:00,
2013-10-22 09:55:00,42.3,42.3,30.17,WSW,245,2.2,2.7,100,0.00,,,0.04,VWS V13.01,2013-10-22 14:55:00,
2013-10-22 10:00:00,42.3,42.3,30.17,SW,230,0.0,0.0,100,0.00,,,0.04,VWS V13.01,2013-10-22 15:00:00,
2013-10-22 10:05:00,42.5,42.5,30.17,SW,230,0.0,0.0,100,0.00,,,0.04,VWS V13.01,2013-10-22 15:05:00,
2013-10-22 10:09:00,42.8,42.8,30.17,South,170,2.7,2.7,100,0.00,,,0.04,VWS V13.01,2013-10-22 15:09:00,
2013-10-22 10:14:00,42.8,42.8,30.14,SW,232,2.7,2.7,100,0.00,,,0.04,VWS V13.01,2013-10-22 15:14:00,
2013-10-22 10:19:00,43.0,43.0,30.14,ESE,118,0.0,0.0,100,0.00,,,0.04,VWS V13.01,2013-10-22 15:19:00,
2013-10-22 10:24:00,43.4,43.4,30.14,NNE,22,0.0,0.0,100,0.00,,,0.04,VWS V13.01,2013-10-22 15:24:00,
2013-10-22 10:29:00,43.6,43.6,30.14,ESE,111,0.0,0.0,100,0.00,,,0.04,VWS V13.01,2013-10-22 15:29:00,
2013-10-22 10:34:00,44.1,44.1,30.14,South,181,2.7,3.6,100,0.00,,,0.04,VWS V13.01,2013-10-22 15:34:00,
2013-10-22 10:39:00,44.3,44.3,30.14,South,177,3.1,3.1,100,0.00,,,0.04,VWS V13.01,2013-10-22 15:39:00,
2013-10-22 10:44:00,44.3,44.3,30.14,SSW,194,3.6,3.6,100,0.00,,,0.04,VWS V13.01,2013-10-22 15:44:00,
2013-10-22 10:49:00,44.3,44.3,30.14,WSW,252,0.0,0.0,100,0.00,,,0.04,VWS V13.01,2013-10-22 15:49:00,
2013-10-22 10:54:00,44.6,44.6,30.14,South,184,0.0,0.0,100,0.00,,,0.04,VWS V13.01,2013-10-22 15:54:00,
2013-10-22 10:59:00,44.8,44.8,30.14,South,191,2.7,2.7,100,0.00,,,0.04,VWS V13.01,2013-10-22 15:59:00,
2013-10-22 11:04:00,45.4,45.4,30.14,South,171,3.1,3.6,100,0.00,,,0.04,VWS V13.01,2013-10-22 16:04:00,
2013-10-22 11:09:00,45.4,45.4,30.14,SSE,168,0.0,0.0,100,0.00,,,0.04,VWS V13.01,2013-10-22 16:09:00,
2013-10-22 11:14:00,45.9,45.9,30.14,SSE,162,2.7,2.7,100,0.00,,,0.04,VWS V13.01,2013-10-22 16:14:00,
2013-10-22 11:19:00,46.3,46.3,30.14,WSW,246,3.1,3.6,100,0.00,,,0.04,VWS V13.01,2013-10-22 16:19:00,
2013-10-22 11:24:00,46.4,46.4,30.14,West,268,0.0,0.0,100,0.00,,,0.04,VWS V13.01,2013-10-22 16:24:00,
2013-10-22 11:29:00,47.0,47.0,30.11,East,94,0.0,0.0,100,0.00,,,0.04,VWS V13.01,2013-10-22 16:29:00,
2013-10-22 11:34:00,48.1,48.1,30.11,SW,232,3.6,3.6,100,0.00,,,0.04,VWS V13.01,2013-10-22 16:34:00,
2013-10-22 11:39:00,48.4,48.4,30.11,SSE,168,3.6,3.6,100,0.00,,,0.04,VWS V13.01,2013-10-22 16:39:00,
2013-10-22 11:44:00,48.8,48.8,30.11,SSE,158,2.7,3.1,100,0.00,,,0.04,VWS V13.01,2013-10-22 16:44:00,
2013-10-22 11:49:00,49.5,49.5,30.11,SSE,165,3.1,3.1,100,0.00,,,0.04,VWS V13.01,2013-10-22 16:49:00,
2013-10-22 11:54:00,50.2,50.2,30.11,SW,219,4.0,4.0,100,0.00,,,0.04,VWS V13.01,2013-10-22 16:54:00,
2013-10-22 11:59:00,50.8,50.8,30.11,SE,136,0.0,2.7,100,0.00,,,0.04,VWS V13.01,2013-10-22 16:59:00,
2013-10-22 12:04:00,51.7,51.7,30.11,SW,228,3.1,3.6,100,0.00,,,0.04,VWS V13.01,2013-10-22 17:04:00,
2013-10-22 12:09:00,51.7,51.7,30.11,WSW,250,3.6,3.6,100,0.00,,,0.04,VWS V13.01,2013-10-22 17:09:00,
2013-10-22 12:14:00,51.5,51.5,30.09,South,174,2.2,2.7,100,0.00,,,0.04,VWS V13.01,2013-10-22 17:14:00,
2013-10-22 12:19:00,52.4,52.4,30.09,South,177,2.7,4.9,100,0.00,,,0.04,VWS V13.01,2013-10-22 17:19:00,
2013-10-22 12:24:00,52.2,52.2,30.09,NNE,12,0.0,4.0,100,0.00,,,0.04,VWS V13.01,2013-10-22 17:24:00,
2013-10-22 12:29:00,51.8,51.8,30.09,WSW,256,3.6,4.0,100,0.00,,,0.04,VWS V13.01,2013-10-22 17:29:00,
2013-10-22 12:34:00,53.6,53.4,30.09,South,173,5.4,5.4,99,0.00,,,0.04,VWS V13.01,2013-10-22 17:34:00,
2013-10-22 12:39:00,54.0,47.6,30.09,West,274,4.0,4.5,79,0.00,,,0.04,VWS V13.01,2013-10-22 17:39:00,
2013-10-22 12:44:00,55.1,48.7,30.09,SSE,147,0.0,0.0,79,0.00,,,0.04,VWS V13.01,2013-10-22 17:44:00,
2013-10-22 12:49:00,55.8,48.0,30.09,WSW,247,2.2,3.1,75,0.00,,,0.04,VWS V13.01,2013-10-22 17:49:00,
2013-10-22 12:54:00,56.3,47.4,30.09,South,191,3.1,5.8,72,0.00,,,0.04,VWS V13.01,2013-10-22 17:54:00,
2013-10-22 12:59:00,56.7,46.7,30.06,SSE,168,4.0,8.1,69,0.00,,,0.04,VWS V13.01,2013-10-22 17:59:00,
2013-10-22 13:04:00,56.9,46.4,30.06,SW,235,5.8,7.6,68,0.00,,,0.04,VWS V13.01,2013-10-22 18:04:00,
2013-10-22 13:09:00,57.2,46.0,30.06,SW,218,4.0,5.4,66,0.00,,,0.04,VWS V13.01,2013-10-22 18:09:00,
2013-10-22 13:14:00,57.2,45.6,30.06,SSW,210,6.3,8.3,65,0.00,,,0.04,VWS V13.01,2013-10-22 18:14:00,
2013-10-22 13:19:00,57.4,45.8,30.06,WSW,241,6.7,8.7,65,0.00,,,0.04,VWS V13.01,2013-10-22 18:19:00,
2013-10-22 13:24:00,57.8,46.5,30.06,WSW,250,4.9,7.6,66,0.00,,,0.04,VWS V13.01,2013-10-22 18:24:00,
2013-10-22 13:29:00,58.1,47.2,30.03,South,188,2.7,4.0,67,0.00,,,0.04,VWS V13.01,2013-10-22 18:29:00,
2013-10-22 13:34:00,58.7,47.4,30.03,WSW,245,5.4,5.8,66,0.00,,,0.04,VWS V13.01,2013-10-22 18:34:00,
2013-10-22 13:39:00,59.0,47.3,30.03,SE,143,3.6,5.4,65,0.00,,,0.04,VWS V13.01,2013-10-22 18:39:00,
2013-10-22 13:44:00,59.4,48.0,30.03,WSW,254,2.7,3.1,66,0.00,,,0.04,VWS V13.01,2013-10-22 18:44:00,
2013-10-22 13:49:00,60.1,47.9,30.03,SSW,202,3.1,4.9,64,0.00,,,0.04,VWS V13.01,2013-10-22 18:49:00,
2013-10-22 13:54:00,60.5,48.3,30.03,WSW,237,5.4,5.8,64,0.00,,,0.04,VWS V13.01,2013-10-22 18:54:00,
2013-10-22 13:59:00,60.5,48.3,30.00,SW,223,5.4,5.8,64,0.00,,,0.04,VWS V13.01,2013-10-22 18:59:00,
2013-10-22 14:04:00,60.7,48.0,30.00,WSW,242,5.4,8.1,63,0.00,,,0.04,VWS V13.01,2013-10-22 19:04:00,
2013-10-22 14:09:00,60.8,48.2,30.00,West,271,4.0,5.4,63,0.00,,,0.04,VWS V13.01,2013-10-22 19:09:00,
2013-10-22 14:14:00,61.2,48.5,30.00,WSW,253,5.8,5.8,63,0.00,,,0.04,VWS V13.01,2013-10-22 19:14:00,
2013-10-22 14:19:00,61.4,48.7,30.00,SSE,163,3.6,5.4,63,0.00,,,0.04,VWS V13.01,2013-10-22 19:19:00,
2013-10-22 14:24:00,61.7,49.0,30.00,SE,143,3.1,3.1,63,0.00,,,0.04,VWS V13.01,2013-10-22 19:24:00,
2013-10-22 14:29:00,62.5,49.7,30.00,SSW,200,4.0,4.9,63,0.00,,,0.04,VWS V13.01,2013-10-22 19:29:00,
2013-10-22 14:34:00,62.6,49.5,30.00,SW,236,6.3,6.3,62,0.00,,,0.04,VWS V13.01,2013-10-22 19:34:00,
2013-10-22 14:39:00,63.0,49.8,30.00,SW,214,4.9,4.9,62,0.00,,,0.04,VWS V13.01,2013-10-22 19:39:00,
2013-10-22 14:44:00,63.2,50.0,30.00,WSW,242,4.0,7.6,62,0.00,,,0.04,VWS V13.01,2013-10-22 19:44:00,
2013-10-22 14:49:00,63.4,50.1,30.00,WSW,238,4.0,4.0,62,0.00,,,0.04,VWS V13.01,2013-10-22 19:49:00,
2013-10-22 14:54:00,63.4,50.1,30.00,WSW,242,3.6,3.6,62,0.00,,,0.04,VWS V13.01,2013-10-22 19:54:00,
2013-10-22 14:59:00,63.7,50.0,29.97,West,275,3.6,6.3,61,0.00,,,0.04,VWS V13.01,2013-10-22 19:59:00,
2013-10-22 15:04:00,64.1,50.4,29.97,South,178,6.7,8.1,61,0.00,,,0.04,VWS V13.01,2013-10-22 20:04:00,
2013-10-22 15:09:00,64.3,50.5,29.97,WSW,241,3.6,3.6,61,0.00,,,0.04,VWS V13.01,2013-10-22 20:09:00,
2013-10-22 15:14:00,65.0,51.2,29.97,SSW,194,5.8,6.3,61,0.00,,,0.04,VWS V13.01,2013-10-22 20:14:00,
2013-10-22 15:19:00,65.0,51.2,29.97,South,173,0.0,2.7,61,0.00,,,0.04,VWS V13.01,2013-10-22 20:19:00,
2013-10-22 15:24:00,65.5,51.7,29.97,SW,236,4.0,5.4,61,0.00,,,0.04,VWS V13.01,2013-10-22 20:24:00,
2013-10-22 15:29:00,65.7,50.1,29.97,SSW,209,8.7,10.1,57,0.00,,,0.04,VWS V13.01,2013-10-22 20:29:00,
2013-10-22 15:34:00,65.5,50.4,29.97,WSW,241,7.6,7.6,58,0.00,,,0.04,VWS V13.01,2013-10-22 20:34:00,
2013-10-22 15:39:00,65.7,50.1,29.97,WSW,255,7.2,8.1,57,0.00,,,0.04,VWS V13.01,2013-10-22 20:39:00,
2013-10-22 15:44:00,65.9,50.2,29.97,West,264,5.8,6.3,57,0.00,,,0.04,VWS V13.01,2013-10-22 20:44:00,
2013-10-22 15:49:00,66.1,50.4,29.97,SW,235,12.8,12.8,57,0.00,,,0.04,VWS V13.01,2013-10-22 20:49:00,
2013-10-22 15:54:00,66.2,50.1,29.97,WSW,242,7.6,8.3,56,0.00,,,0.04,VWS V13.01,2013-10-22 20:54:00,
2013-10-22 15:59:00,66.2,50.6,29.97,SW,231,10.5,10.5,57,0.00,,,0.04,VWS V13.01,2013-10-22 20:59:00,
2013-10-22 16:04:00,66.2,51.0,29.97,WSW,241,6.3,8.3,58,0.00,,,0.04,VWS V13.01,2013-10-22 21:04:00,
2013-10-22 16:09:00,66.2,51.0,29.97,West,262,9.6,9.6,58,0.00,,,0.04,VWS V13.01,2013-10-22 21:09:00,
2013-10-22 16:14:00,66.1,51.3,29.97,WSW,238,10.1,10.1,59,0.00,,,0.04,VWS V13.01,2013-10-22 21:14:00,
2013-10-22 16:19:00,66.1,50.9,29.97,WSW,238,11.0,11.0,58,0.00,,,0.04,VWS V13.01,2013-10-22 21:19:00,
2013-10-22 16:24:00,65.9,50.7,29.97,SW,226,11.0,11.0,58,0.00,,,0.04,VWS V13.01,2013-10-22 21:24:00,
2013-10-22 16:29:00,65.9,50.7,29.97,WSW,252,10.5,12.3,58,0.00,,,0.04,VWS V13.01,2013-10-22 21:29:00,
2013-10-22 16:34:00,65.7,50.5,29.97,SW,232,10.1,10.1,58,0.00,,,0.04,VWS V13.01,2013-10-22 21:34:00,
2013-10-22 16:39:00,65.5,51.3,29.97,SSW,208,6.3,7.2,60,0.00,,,0.04,VWS V13.01,2013-10-22 21:39:00,
2013-10-22 16:44:00,65.5,51.3,29.97,West,267,11.4,11.4,60,0.00,,,0.04,VWS V13.01,2013-10-22 21:44:00,
2013-10-22 16:49:00,65.7,51.5,29.97,West,259,5.8,8.1,60,0.00,,,0.04,VWS V13.01,2013-10-22 21:49:00,
2013-10-22 16:54:00,65.7,51.0,29.97,West,264,7.2,9.2,59,0.00,,,0.04,VWS V13.01,2013-10-22 21:54:00,
2013-10-22 16:59:00,65.7,51.9,29.97,West,269,8.1,8.1,61,0.00,,,0.04,VWS V13.01,2013-10-22 21:59:00,
2013-10-22 17:04:00,65.9,51.6,29.97,SW,221,6.3,6.3,60,0.00,,,0.04,VWS V13.01,2013-10-22 22:04:00,
2013-10-22 17:09:00,65.7,51.0,29.97,West,263,6.3,8.1,59,0.00,,,0.04,VWS V13.01,2013-10-22 22:09:00,
2013-10-22 17:14:00,65.7,51.5,29.97,South,190,4.0,4.0,60,0.00,,,0.04,VWS V13.01,2013-10-22 22:14:00,
2013-10-22 17:19:00,65.7,51.5,29.97,SW,222,4.9,5.8,60,0.00,,,0.04,VWS V13.01,2013-10-22 22:19:00,
2013-10-22 17:24:00,65.5,51.7,29.97,SW,232,4.9,4.9,61,0.00,,,0.04,VWS V13.01,2013-10-22 22:24:00,
2013-10-22 17:29:00,65.5,51.7,29.97,SSW,213,3.6,6.3,61,0.00,,,0.04,VWS V13.01,2013-10-22 22:29:00,
2013-10-22 17:34:00,65.5,51.7,29.97,WSW,255,6.3,6.3,61,0.00,,,0.04,VWS V13.01,2013-10-22 22:34:00,
2013-10-22 17:39:00,65.7,51.5,29.97,SW,230,5.8,5.8,60,0.00,,,0.04,VWS V13.01,2013-10-22 22:39:00,
2013-10-22 17:44:00,65.7,51.5,29.97,SW,222,4.9,5.8,60,0.00,,,0.04,VWS V13.01,2013-10-22 22:44:00,
2013-10-22 17:49:00,65.7,51.5,29.97,SW,220,3.6,5.4,60,0.00,,,0.04,VWS V13.01,2013-10-22 22:49:00,
2013-10-22 17:54:00,65.5,51.7,29.97,WSW,237,4.0,5.4,61,0.00,,,0.04,VWS V13.01,2013-10-22 22:54:00,
2013-10-22 17:59:00,65.3,51.6,29.97,WSW,240,4.0,4.0,61,0.00,,,0.04,VWS V13.01,2013-10-22 22:59:00,
2013-10-22 18:03:00,65.2,51.4,29.97,WSW,248,2.7,4.0,61,0.00,,,0.04,VWS V13.01,2013-10-22 23:03:00,
2013-10-22 18:08:00,65.0,51.2,29.97,SW,236,3.1,3.1,61,0.00,,,0.04,VWS V13.01,2013-10-22 23:08:00,
2013-10-22 18:13:00,64.6,51.3,29.97,SW,233,2.7,2.7,62,0.00,,,0.04,VWS V13.01,2013-10-22 23:13:00,
2013-10-22 18:18:00,64.4,51.2,29.97,SW,233,0.0,0.0,62,0.00,,,0.04,VWS V13.01,2013-10-22 23:18:00,
2013-10-22 18:23:00,63.9,50.6,29.97,SW,233,0.0,0.0,62,0.00,,,0.04,VWS V13.01,2013-10-22 23:23:00,
2013-10-22 18:28:00,63.4,51.4,29.97,SW,233,0.0,0.0,65,0.00,,,0.04,VWS V13.01,2013-10-22 23:28:00,
2013-10-22 18:33:00,62.6,50.7,29.97,SW,233,0.0,0.0,65,0.00,,,0.04,VWS V13.01,2013-10-22 23:33:00,
2013-10-22 18:38:00,62.1,50.2,29.97,SW,233,0.0,0.0,65,0.00,,,0.04,VWS V13.01,2013-10-22 23:38:00,
2013-10-22 18:43:00,61.6,50.5,29.97,SW,233,0.0,0.0,67,0.00,,,0.04,VWS V13.01,2013-10-22 23:43:00,
2013-10-22 18:48:00,61.0,51.6,29.97,SW,233,0.0,0.0,71,0.00,,,0.04,VWS V13.01,2013-10-22 23:48:00,
2013-10-22 18:53:00,59.9,51.6,29.97,SW,233,0.0,0.0,74,0.00,,,0.04,VWS V13.01,2013-10-22 23:53:00,
2013-10-22 18:58:00,59.0,50.8,29.97,SW,233,0.0,0.0,74,0.00,,,0.04,VWS V13.01,2013-10-22 23:58:00,
2013-10-22 19:03:00,58.3,50.1,29.97,SW,233,0.0,0.0,74,0.00,,,0.04,VWS V13.01,2013-10-23 00:03:00,
2013-10-22 19:08:00,57.8,51.0,29.97,SW,233,0.0,0.0,78,0.00,,,0.04,VWS V13.01,2013-10-23 00:08:00,
2013-10-22 19:13:00,56.7,50.6,29.97,SW,233,0.0,0.0,80,0.00,,,0.04,VWS V13.01,2013-10-23 00:13:00,
2013-10-22 19:18:00,56.2,51.4,29.97,SW,233,0.0,0.0,84,0.00,,,0.04,VWS V13.01,2013-10-23 00:18:00,
2013-10-22 19:23:00,55.8,51.7,29.97,SW,233,0.0,0.0,86,0.00,,,0.04,VWS V13.01,2013-10-23 00:23:00,
2013-10-22 19:28:00,55.3,51.5,29.97,SW,233,0.0,0.0,87,0.00,,,0.04,VWS V13.01,2013-10-23 00:28:00,
2013-10-22 19:33:00,54.7,51.8,29.97,SW,233,0.0,0.0,90,0.00,,,0.04,VWS V13.01,2013-10-23 00:33:00,
2013-10-22 19:38:00,54.2,51.6,29.97,SW,233,0.0,0.0,91,0.00,,,0.04,VWS V13.01,2013-10-23 00:38:00,
2013-10-22 19:43:00,54.0,52.0,29.97,SW,233,0.0,0.0,93,0.00,,,0.04,VWS V13.01,2013-10-23 00:43:00,
2013-10-22 19:48:00,53.5,51.5,29.97,SW,233,0.0,0.0,93,0.00,,,0.04,VWS V13.01,2013-10-23 00:48:00,
2013-10-22 19:53:00,53.1,51.1,29.97,SW,233,0.0,0.0,93,0.00,,,0.04,VWS V13.01,2013-10-23 00:53:00,
2013-10-22 19:58:00,52.7,51.3,30.00,SW,233,0.0,0.0,95,0.00,,,0.04,VWS V13.01,2013-10-23 00:58:00,
2013-10-22 20:03:00,52.4,51.0,30.00,SW,233,0.0,0.0,95,0.00,,,0.04,VWS V13.01,2013-10-23 01:03:00,
2013-10-22 20:08:00,52.4,52.1,30.00,NNW,331,0.0,0.0,99,0.00,,,0.04,VWS V13.01,2013-10-23 01:08:00,
2013-10-22 20:13:00,52.0,52.0,30.00,NNW,331,0.0,0.0,100,0.00,,,0.04,VWS V13.01,2013-10-23 01:13:00,
2013-10-22 20:18:00,51.8,51.6,30.00,NNW,331,0.0,0.0,99,0.00,,,0.04,VWS V13.01,2013-10-23 01:18:00,
2013-10-22 20:23:00,51.7,51.4,30.00,NNW,331,0.0,0.0,99,0.00,,,0.04,VWS V13.01,2013-10-23 01:23:00,
2013-10-22 20:28:00,51.5,51.2,30.00,NNW,331,0.0,0.0,99,0.00,,,0.04,VWS V13.01,2013-10-23 01:28:00,
2013-10-22 20:33:00,51.5,51.5,30.00,NNW,331,0.0,0.0,100,0.00,,,0.04,VWS V13.01,2013-10-23 01:33:00,
2013-10-22 20:38:00,51.1,51.1,30.00,NNW,331,0.0,0.0,100,0.00,,,0.04,VWS V13.01,2013-10-23 01:38:00,
2013-10-22 20:43:00,50.9,50.9,30.00,NNW,331,0.0,0.0,100,0.00,,,0.04,VWS V13.01,2013-10-23 01:43:00,
2013-10-22 20:48:00,50.8,50.8,30.00,NNW,331,0.0,0.0,100,0.00,,,0.04,VWS V13.01,2013-10-23 01:48:00,
2013-10-22 20:53:00,50.4,50.4,30.00,NNW,331,0.0,0.0,100,0.00,,,0.04,VWS V13.01,2013-10-23 01:53:00,
2013-10-22 20:58:00,50.2,50.2,30.00,NNW,331,0.0,0.0,100,0.00,,,0.04,VWS V13.01,2013-10-23 01:58:00,
2013-10-22 21:03:00,50.0,50.0,30.00,NNW,331,0.0,0.0,100,0.00,,,0.04,VWS V13.01,2013-10-23 02:03:00,
2013-10-22 21:08:00,49.9,49.9,30.00,NNW,331,0.0,0.0,100,0.00,,,0.04,VWS V13.01,2013-10-23 02:08:00,
2013-10-22 21:13:00,49.9,49.9,30.00,NNW,331,0.0,0.0,100,0.00,,,0.04,VWS V13.01,2013-10-23 02:13:00,
2013-10-22 21:18:00,49.7,49.7,30.00,NNW,331,0.0,0.0,100,0.00,,,0.04,VWS V13.01,2013-10-23 02:18:00,
2013-10-22 21:23:00,49.7,49.7,30.00,NNW,331,0.0,0.0,100,0.00,,,0.04,VWS V13.01,2013-10-23 02:23:00,
2013-10-22 21:28:00,49.7,49.7,30.00,NNW,331,0.0,0.0,100,0.00,,,0.04,VWS V13.01,2013-10-23 02:28:00,
2013-10-22 21:33:00,49.5,49.5,30.00,NNW,331,0.0,0.0,100,0.00,,,0.04,VWS V13.01,2013-10-23 02:33:00,
2013-10-22 21:38:00,49.3,49.3,30.00,NNW,331,0.0,0.0,100,0.00,,,0.04,VWS V13.01,2013-10-23 02:38:00,
2013-10-22 21:43:00,49.1,49.1,30.03,NNW,331,0.0,0.0,100,0.00,,,0.04,VWS V13.01,2013-10-23 02:43:00,
2013-10-22 21:48:00,49.0,49.0,30.03,NNW,331,0.0,0.0,100,0.00,,,0.04,VWS V13.01,2013-10-23 02:48:00,
2013-10-22 21:53:00,48.8,48.8,30.03,NNW,331,0.0,0.0,100,0.00,,,0.04,VWS V13.01,2013-10-23 02:53:00,
2013-10-22 21:58:00,48.6,48.6,30.03,NNW,331,0.0,0.0,100,0.00,,,0.04,VWS V13.01,2013-10-23 02:58:00,
2013-10-22 22:03:00,48.6,48.6,30.03,NNW,331,0.0,0.0,100,0.00,,,0.04,VWS V13.01,2013-10-23 03:03:00,
2013-10-22 22:08:00,48.4,48.4,30.03,NNW,331,0.0,0.0,100,0.00,,,0.04,VWS V13.01,2013-10-23 03:08:00,
2013-10-22 22:13:00,48.4,48.4,30.03,NNW,331,0.0,0.0,100,0.00,,,0.04,VWS V13.01,2013-10-23 03:13:00,
2013-10-22 22:18:00,48.2,48.2,30.03,NNW,331,0.0,0.0,100,0.00,,,0.04,VWS V13.01,2013-10-23 03:18:00,
2013-10-22 22:23:00,48.1,48.1,30.03,NNW,331,0.0,0.0,100,0.00,,,0.04,VWS V13.01,2013-10-23 03:23:00,
2013-10-22 22:28:00,48.1,48.1,30.03,NNW,331,0.0,0.0,100,0.00,,,0.04,VWS V13.01,2013-10-23 03:28:00,
2013-10-22 22:33:00,47.7,47.7,30.03,NNW,331,0.0,0.0,100,0.00,,,0.04,VWS V13.01,2013-10-23 03:33:00,
2013-10-22 22:38:00,47.5,47.5,30.03,NNW,331,0.0,0.0,100,0.00,,,0.04,VWS V13.01,2013-10-23 03:38:00,
2013-10-22 22:43:00,47.3,47.3,30.03,NNW,331,0.0,0.0,100,0.00,,,0.04,VWS V13.01,2013-10-23 03:43:00,
2013-10-22 22:48:00,47.5,47.5,30.03,NNW,331,0.0,0.0,100,0.00,,,0.04,VWS V13.01,2013-10-23 03:48:00,
2013-10-22 22:53:00,47.5,47.5,30.03,South,176,0.0,0.0,100,0.00,,,0.04,VWS V13.01,2013-10-23 03:53:00,
2013-10-22 22:58:00,47.7,47.7,30.06,South,176,0.0,0.0,100,0.00,,,0.04,VWS V13.01,2013-10-23 03:58:00,
2013-10-22 23:01:00,47.7,47.7,30.06,SW,216,0.0,0.0,100,0.00,,,0.04,VWS V13.01,2013-10-23 04:01:00,
2013-10-22 23:06:00,47.7,47.7,30.06,SW,229,0.0,0.0,100,0.00,,,0.04,VWS V13.01,2013-10-23 04:06:00,
2013-10-22 23:11:00,47.9,47.9,30.06,WSW,241,2.2,3.6,100,0.00,,,0.04,VWS V13.01,2013-10-23 04:11:00,
2013-10-22 23:16:00,48.1,48.1,30.06,SW,233,0.0,0.0,100,0.00,,,0.04,VWS V13.01,2013-10-23 04:16:00,
2013-10-22 23:21:00,48.2,48.2,30.06,West,259,0.0,0.0,100,0.00,,,0.04,VWS V13.01,2013-10-23 04:21:00,
2013-10-22 23:26:00,48.2,48.2,30.06,West,259,0.0,0.0,100,0.00,,,0.04,VWS V13.01,2013-10-23 04:26:00,
2013-10-22 23:31:00,48.2,48.2,30.06,West,259,0.0,0.0,100,0.00,,,0.04,VWS V13.01,2013-10-23 04:31:00,
2013-10-22 23:36:00,48.2,48.2,30.06,West,259,0.0,0.0,100,0.00,,,0.04,VWS V13.01,2013-10-23 04:36:00,
2013-10-22 23:41:00,48.1,48.1,30.06,West,259,0.0,0.0,100,0.00,,,0.04,VWS V13.01,2013-10-23 04:41:00,
2013-10-22 23:46:00,47.7,47.7,30.06,West,259,0.0,0.0,100,0.00,,,0.04,VWS V13.01,2013-10-23 04:46:00,
2013-10-22 23:51:00,47.5,47.5,30.06,West,259,0.0,0.0,100,0.00,,,0.04,VWS V13.01,2013-10-23 04:51:00,
2013-10-22 23:56:00,47.3,47.3,30.06,West,259,0.0,0.0,100,0.00,,,0.04,VWS V13.01,2013-10-23 04:56:00,